Strona główna
METAR-TAF:

METAR-TAF

Lotnisko :

Port lotniczy Pontianak-Supadio

Pontianak, Indonezja

Szerokość geograficzna: 00-09S, Długość geograficzna: 109-24E, wysokość: 3 m

Aktualna obserwacja pogody

Raport powstał 31 minut temu, godzina 01:00 UTC
Wiatr 4 kt od północno-północny wschód
Temperatura 26°C
Wilgotność 94%
Ciśnienie 1011 hPa
Widzialność 10 km lub więcej
Mało chmury na wysokości 1000 ft

METAR: WIOO 230100Z 02004KT 9999 FEW010 26/25 Q1011 NOSIG

czas: 08:31 (01:31 UTC)


TAF: brakujący

Obserwacja i prognoza pogody dla ponad 4000 lotnisk (raport METAR i TAF).

Dostępne stacje oznaczono żółtymi i czerwonymi punktami na mapie.

Najedź kursorem aby zobaczyć nazwę stacji.

Kliknij aby zobaczyć obserwacje i prognozy pogody.

Aby zmienić mapę: kliknij na zielony przycisk z czarnym krzyżykiem, aby powiększyć; na zielony przycisk z myślnikiem, aby pomniejszyć; na zielone strzałki, aby przejść do map sąsiednich.


METAR-TAF: